Time;durP1;ratioP1;P1;durP2;ratioP2;P2;SDS_P1;SDS_P2;PMS_P1;PMS_P2;Temp;Humidity;BMP_temperature;BMP_pressure;BME280_temperature;BME280_humidity;BME280_pressure;Samples;Min_cycle;Max_cycle;Signal;HPM_P1;HPM_P2
2021/10/28 00:14:30;;;;;;;7.40;4.30;;;;;;;7.91;95.02;101437.89;115665;1192;74769;-79
2021/10/28 00:16:59;;;;;;;8.80;4.60;;;;;;;7.88;95.60;101443.11;115311;1192;71549;-77
2021/10/28 00:19:29;;;;;;;10.70;5.50;;;;;;;7.84;95.56;101445.03;115350;1191;71983;-78
2021/10/28 00:21:56;;;;;;;9.90;5.10;;;;;;;7.81;95.77;101440.59;115765;1192;63274;-78
2021/10/28 00:24:23;;;;;;;10.00;5.20;;;;;;;7.78;95.80;101439.77;115665;1192;60407;-78
2021/10/28 00:26:50;;;;;;;9.00;5.30;;;;;;;7.75;95.78;101439.80;115435;1192;76322;-79
2021/10/28 00:29:19;;;;;;;9.50;5.50;;;;;;;7.75;96.27;101437.91;114950;1192;70998;-78
2021/10/28 00:31:50;;;;;;;8.10;4.90;;;;;;;7.75;96.13;101440.05;115361;1192;74110;-79
2021/10/28 00:34:17;;;;;;;8.00;5.20;;;;;;;7.76;96.96;101439.21;115788;1192;63299;-79
2021/10/28 00:36:46;;;;;;;7.40;5.00;;;;;;;7.77;96.75;101437.73;115768;1192;59804;-79
2021/10/28 00:39:13;;;;;;;8.40;4.90;;;;;;;7.77;96.89;101434.55;115462;1192;75597;-79
2021/10/28 00:41:40;;;;;;;9.10;5.50;;;;;;;7.76;96.84;101433.38;115581;1192;70998;-79
2021/10/28 00:44:08;;;;;;;11.30;5.40;;;;;;;7.76;97.37;101437.27;115404;1192;72655;-80
2021/10/28 00:46:37;;;;;;;7.80;4.90;;;;;;;7.74;97.22;101438.66;115736;1192;59943;-79
2021/10/28 00:49:08;;;;;;;10.90;6.20;;;;;;;7.73;97.30;101437.54;115500;1192;61151;-80
2021/10/28 00:51:35;;;;;;;11.70;5.80;;;;;;;7.72;96.73;101437.16;115808;1192;75670;-79
2021/10/28 00:54:05;;;;;;;11.40;5.40;;;;;;;7.71;96.79;101436.90;115662;1192;72433;-79
2021/10/28 00:56:32;;;;;;;9.30;5.50;;;;;;;7.68;96.79;101436.45;115313;1192;74811;-80
2021/10/28 00:59:01;;;;;;;8.50;4.80;;;;;;;7.64;96.44;101432.70;115677;1192;61971;-79
2021/10/28 01:01:29;;;;;;;8.30;5.40;;;;;;;7.59;96.05;101433.70;115831;1192;60563;-80
2021/10/28 01:03:56;;;;;;;7.40;5.10;;;;;;;7.51;95.84;101431.77;115960;1191;75616;-79
2021/10/28 01:06:23;;;;;;;9.30;5.20;;;;;;;7.43;95.98;101431.27;115667;1192;70533;-79
2021/10/28 01:08:50;;;;;;;8.90;5.40;;;;;;;7.36;95.96;101434.88;115801;1191;74043;-80
2021/10/28 01:11:18;;;;;;;12.30;6.10;;;;;;;7.31;96.40;101438.50;115551;1192;61988;-78
2021/10/28 01:13:45;;;;;;;11.30;6.20;;;;;;;7.28;96.93;101438.58;115720;1192;61597;-78
2021/10/28 01:16:12;;;;;;;11.10;6.00;;;;;;;7.28;97.20;101441.74;115665;1191;76524;-78
2021/10/28 01:18:39;;;;;;;11.10;6.00;;;;;;;7.28;97.51;101440.86;115712;1192;71868;-79
2021/10/28 01:21:08;;;;;;;11.30;6.50;;;;;;;7.29;98.09;101445.64;115511;1192;72747;-80
2021/10/28 01:23:37;;;;;;;10.30;5.50;;;;;;;7.31;97.82;101448.35;115506;1191;61839;-79
2021/10/28 01:26:07;;;;;;;11.00;5.80;;;;;;;7.30;97.90;101448.45;115260;1192;61824;-79
2021/10/28 01:28:37;;;;;;;12.90;6.00;;;;;;;7.30;98.14;101447.04;115739;1192;76459;-79
2021/10/28 01:31:08;;;;;;;8.00;4.70;;;;;;;7.28;97.80;101443.45;115751;1192;71013;-79
2021/10/28 01:33:36;;;;;;;8.40;5.40;;;;;;;7.28;97.85;101441.19;115775;1192;73302;-78
2021/10/28 01:36:04;;;;;;;11.30;6.10;;;;;;;7.26;98.05;101441.73;115355;1192;60239;-79
2021/10/28 01:38:31;;;;;;;10.90;5.30;;;;;;;7.21;97.66;101439.87;115730;1192;60062;-79
2021/10/28 01:41:00;;;;;;;10.90;6.10;;;;;;;7.18;97.90;101438.94;115679;1192;75251;-78
2021/10/28 01:43:30;;;;;;;8.80;5.00;;;;;;;7.14;98.03;101438.02;115709;1192;70009;-78
2021/10/28 01:45:56;;;;;;;11.60;6.10;;;;;;;7.12;98.01;101438.07;115752;1192;73542;-79
2021/10/28 01:48:25;;;;;;;9.20;5.60;;;;;;;7.08;97.67;101432.78;115613;1192;62706;-79
2021/10/28 01:50:53;;;;;;;10.40;5.70;;;;;;;7.05;97.98;101428.98;115058;1192;59991;-81
2021/10/28 01:53:21;;;;;;;12.20;6.60;;;;;;;7.02;97.95;101424.48;115650;1192;75355;-79
2021/10/28 01:55:48;;;;;;;10.10;5.80;;;;;;;7.00;97.94;101423.64;115497;1192;71039;-79
2021/10/28 01:58:17;;;;;;;11.60;6.30;;;;;;;6.98;98.13;101421.34;115720;1192;72962;-79
2021/10/28 02:00:44;;;;;;;10.30;6.50;;;;;;;6.97;98.51;101418.42;115689;1192;63200;-79
2021/10/28 02:03:11;;;;;;;10.10;6.50;;;;;;;6.97;98.49;101420.41;115244;1192;60312;-79
2021/10/28 02:05:37;;;;;;;11.00;6.10;;;;;;;6.96;98.25;101418.91;115427;1192;59968;-78
2021/10/28 02:08:04;;;;;;;10.80;6.30;;;;;;;6.95;98.34;101421.23;115692;1192;59895;-78
2021/10/28 02:10:31;;;;;;;11.60;6.30;;;;;;;6.94;98.45;101416.39;115659;1191;72905;-78
2021/10/28 02:13:00;;;;;;;13.60;6.30;;;;;;;6.93;98.45;101416.81;115765;1192;63057;-78
2021/10/28 02:15:27;;;;;;;12.30;6.30;;;;;;;6.93;98.51;101415.30;115669;1191;59857;-79
2021/10/28 02:17:54;;;;;;;12.60;5.80;;;;;;;6.93;99.16;101417.73;115356;1192;75462;-79
2021/10/28 02:20:20;;;;;;;12.00;6.60;;;;;;;6.94;98.92;101413.94;115735;1184;71285;-79
2021/10/28 02:22:51;;;;;;;14.10;6.70;;;;;;;6.95;99.36;101412.44;115701;1192;73813;-79
2021/10/28 02:25:18;;;;;;;9.70;6.30;;;;;;;6.99;99.55;101412.30;115691;1192;62009;-79
2021/10/28 02:27:46;;;;;;;9.60;5.80;;;;;;;7.01;99.71;101411.73;115351;1192;61749;-79
2021/10/28 02:30:14;;;;;;;9.00;5.90;;;;;;;7.01;99.30;101417.16;115611;1192;76438;-79
2021/10/28 02:32:42;;;;;;;10.80;5.90;;;;;;;7.02;99.59;101415.70;115743;1192;72036;-79
2021/10/28 02:35:10;;;;;;;11.80;6.70;;;;;;;7.03;99.65;101414.54;115781;1192;75546;-79
2021/10/28 02:37:37;;;;;;;11.30;5.90;;;;;;;7.06;99.78;101413.96;115672;1192;62203;-79
2021/10/28 02:40:05;;;;;;;11.80;5.80;;;;;;;7.06;99.51;101415.73;115441;1192;61144;-80
2021/10/28 02:42:32;;;;;;;11.70;6.10;;;;;;;7.04;99.50;101411.89;115590;1192;75497;-79
2021/10/28 02:45:02;;;;;;;11.60;5.60;;;;;;;7.00;99.27;101412.59;115802;1192;70939;-78
2021/10/28 02:47:30;;;;;;;8.80;4.80;;;;;;;6.99;99.89;101412.31;115742;1192;73659;-78
2021/10/28 02:49:57;;;;;;;5.80;3.60;;;;;;;6.98;100.00;101408.67;115124;1192;61309;-79
2021/10/28 02:52:26;;;;;;;7.90;5.00;;;;;;;7.02;100.00;101407.95;115597;1190;59720;-79
2021/10/28 02:54:54;;;;;;;13.10;6.30;;;;;;;7.06;100.00;101406.92;115733;1192;76724;-79
2021/10/28 02:57:21;;;;;;;16.40;6.70;;;;;;;7.08;100.00;101403.04;115760;1191;71037;-79
2021/10/28 02:59:48;;;;;;;14.60;8.20;;;;;;;7.11;100.00;101406.30;115650;1192;73611;-79
2021/10/28 03:02:14;;;;;;;11.70;6.90;;;;;;;7.13;100.00;101404.00;114894;1192;61845;-78
2021/10/28 03:04:41;;;;;;;11.20;6.80;;;;;;;7.15;100.00;101403.86;115387;1191;61483;-78
2021/10/28 03:07:08;;;;;;;12.40;6.80;;;;;;;7.16;100.00;101402.16;115803;1192;75808;-78
2021/10/28 03:09:35;;;;;;;13.10;6.90;;;;;;;7.15;100.00;101395.55;115737;1191;59489;-78
2021/10/28 03:12:03;;;;;;;12.00;6.80;;;;;;;7.17;100.00;101393.34;115202;1192;72210;-79
2021/10/28 03:27:47;;;;;;;12.00;7.20;;;;;;;7.18;100.00;101387.73;115536;1192;61820;-79
2021/10/28 03:30:14;;;;;;;14.40;7.60;;;;;;;7.18;100.00;101389.52;115735;1192;60818;-79
2021/10/28 03:32:41;;;;;;;11.20;6.80;;;;;;;7.15;100.00;101385.69;115793;1191;77638;-78
2021/10/28 03:35:11;;;;;;;13.10;7.10;;;;;;;7.13;100.00;101391.14;115311;1192;70017;-80
2021/10/28 03:37:44;;;;;;;12.70;7.20;;;;;;;7.11;99.98;101389.95;115787;1191;72578;-79
2021/10/28 03:48:27;;;;;;;12.20;7.00;;;;;;;6.96;99.98;101395.17;115121;1192;71165;-80
2021/10/28 03:59:08;;;;;;;10.90;7.00;;;;;;;6.78;99.14;101397.61;115833;1192;76467;-80
2021/10/28 04:18:19;;;;;;;16.00;8.70;;;;;;;6.62;100.00;101395.09;115680;1192;72608;-78
2021/10/28 04:28:56;;;;;;;14.90;8.50;;;;;;;6.73;100.00;101384.06;115680;1192;72112;-78
2021/10/28 04:31:28;;;;;;;11.70;7.10;;;;;;;6.77;100.00;101387.30;115297;1192;73777;-78
2021/10/28 04:33:57;;;;;;;12.80;7.70;;;;;;;6.79;100.00;101388.67;115612;1192;61652;-79
2021/10/28 04:36:30;;;;;;;15.40;7.60;;;;;;;6.83;100.00;101386.40;115868;1192;60231;-80
2021/10/28 04:38:58;;;;;;;14.70;8.00;;;;;;;6.85;100.00;101381.11;115881;1192;74285;-80
2021/10/28 04:41:25;;;;;;;13.00;7.90;;;;;;;6.87;100.00;101380.04;115887;1191;72054;-79
2021/10/28 04:43:55;;;;;;;12.60;8.10;;;;;;;6.92;100.00;101383.16;115613;1192;72552;-79
2021/10/28 04:46:23;;;;;;;12.20;8.30;;;;;;;6.94;100.00;101386.29;115834;1192;60283;-79
2021/10/28 04:48:50;;;;;;;19.10;8.00;;;;;;;6.95;100.00;101385.00;115842;1192;60357;-78
2021/10/28 04:51:17;;;;;;;13.80;7.80;;;;;;;6.95;100.00;101383.75;115846;1192;74330;-78
2021/10/28 04:53:43;;;;;;;14.00;8.00;;;;;;;6.96;100.00;101386.38;115508;1192;72226;-79
2021/10/28 04:56:10;;;;;;;18.30;8.60;;;;;;;6.95;100.00;101385.18;115664;1192;59829;-80
2021/10/28 04:58:37;;;;;;;12.70;7.60;;;;;;;6.93;100.00;101380.22;115825;1192;61959;-81
2021/10/28 05:01:04;;;;;;;12.20;7.60;;;;;;;6.92;100.00;101375.73;115809;1192;62030;-80
2021/10/28 05:03:31;;;;;;;12.20;7.80;;;;;;;6.91;100.00;101374.96;115584;1192;76548;-81
2021/10/28 05:05:57;;;;;;;11.70;7.40;;;;;;;6.91;100.00;101375.16;115836;1192;70996;-80
2021/10/28 05:08:24;;;;;;;13.60;7.60;;;;;;;6.89;100.00;101375.27;115804;1192;59886;-80
2021/10/28 05:10:51;;;;;;;10.90;6.60;;;;;;;6.85;100.00;101367.13;115732;1192;61054;-80
2021/10/28 05:13:18;;;;;;;12.10;7.30;;;;;;;6.80;100.00;101366.66;115857;1192;59821;-80
2021/10/28 05:15:46;;;;;;;13.60;7.80;;;;;;;6.78;100.00;101366.85;115625;1192;76415;-81
2021/10/28 05:18:15;;;;;;;11.80;7.70;;;;;;;6.76;100.00;101363.10;115391;1192;72182;-78
2021/10/28 05:20:43;;;;;;;11.90;7.60;;;;;;;6.77;100.00;101360.08;115745;1192;72595;-78
2021/10/28 05:23:13;;;;;;;14.30;7.40;;;;;;;6.76;100.00;101363.46;115816;1192;62185;-79
2021/10/28 05:25:43;;;;;;;12.50;9.10;;;;;;;6.76;100.00;101361.00;115829;1192;61664;-80
2021/10/28 05:28:16;;;;;;;15.30;7.70;;;;;;;6.76;100.00;101362.42;115418;1191;75305;-80
2021/10/28 05:30:43;;;;;;;13.80;8.00;;;;;;;6.74;100.00;101361.45;115790;1192;71805;-79
2021/10/28 05:33:14;;;;;;;12.00;7.00;;;;;;;6.72;100.00;101358.83;115812;1184;72994;-79
2021/10/28 05:35:42;;;;;;;11.10;7.00;;;;;;;6.73;100.00;101359.00;115851;1192;62530;-79
2021/10/28 05:38:08;;;;;;;13.10;8.20;;;;;;;6.73;100.00;101355.45;115889;1191;61144;-80
2021/10/28 05:40:35;;;;;;;12.00;7.60;;;;;;;6.74;100.00;101355.54;115473;1192;76585;-79
2021/10/28 05:43:02;;;;;;;14.30;7.50;;;;;;;6.77;100.00;101356.88;115695;1192;71067;-79
2021/10/28 05:45:31;;;;;;;9.80;6.50;;;;;;;6.78;100.00;101358.18;115603;1192;73586;-79
2021/10/28 05:47:57;;;;;;;11.80;6.90;;;;;;;6.77;100.00;101355.83;115846;1192;60863;-79
2021/10/28 05:50:24;;;;;;;11.90;6.50;;;;;;;6.74;100.00;101352.69;115465;1192;59977;-79
2021/10/28 05:52:53;;;;;;;10.20;7.60;;;;;;;6.73;100.00;101355.95;115647;1192;75452;-79
2021/10/28 05:55:22;;;;;;;11.10;6.80;;;;;;;6.73;100.00;101356.50;115749;1192;72126;-79
2021/10/28 05:57:49;;;;;;;13.60;7.40;;;;;;;6.74;100.00;101355.20;115775;1191;73403;-79
2021/10/28 06:00:17;;;;;;;17.90;7.80;;;;;;;6.75;100.00;101348.43;115741;1192;60379;-79
2021/10/28 06:02:43;;;;;;;13.60;7.80;;;;;;;6.75;100.00;101347.33;115692;1192;59826;-79
2021/10/28 06:05:11;;;;;;;12.50;7.70;;;;;;;6.77;100.00;101347.39;115347;1192;75849;-83
2021/10/28 06:07:39;;;;;;;9.50;4.70;;;;;;;6.77;100.00;101346.11;115575;1191;71232;-79
2021/10/28 06:10:08;;;;;;;9.90;6.50;;;;;;;6.82;100.00;101350.09;115727;1192;73623;-79
2021/10/28 06:12:38;;;;;;;10.00;5.60;;;;;;;6.86;100.00;101347.61;115696;1192;62014;-79
2021/10/28 06:15:07;;;;;;;9.60;6.60;;;;;;;6.92;100.00;101350.29;115795;1192;59962;-79
2021/10/28 06:17:39;;;;;;;13.20;6.80;;;;;;;6.99;100.00;101347.20;115537;1192;76536;-79
2021/10/28 06:20:09;;;;;;;11.90;7.60;;;;;;;7.05;100.00;101344.89;115741;1192;70911;-79
2021/10/28 06:22:35;;;;;;;16.70;8.80;;;;;;;7.10;100.00;101345.17;115660;1192;73697;-78
2021/10/28 06:25:03;;;;;;;13.30;8.20;;;;;;;7.13;100.00;101345.28;115831;1192;62942;-79
2021/10/28 06:27:29;;;;;;;13.90;9.50;;;;;;;7.17;100.00;101346.01;115818;1192;60217;-79
2021/10/28 06:29:56;;;;;;;16.30;8.40;;;;;;;7.19;100.00;101341.95;115666;1192;75564;-79
2021/10/28 06:32:23;;;;;;;11.20;6.50;;;;;;;7.22;100.00;101345.19;115537;1192;72261;-79
2021/10/28 06:34:50;;;;;;;13.50;6.80;;;;;;;7.23;100.00;101349.69;115514;1192;73555;-79
2021/10/28 06:37:17;;;;;;;11.20;6.10;;;;;;;7.23;100.00;101350.72;115771;1192;61860;-79
2021/10/28 06:39:45;;;;;;;9.70;5.90;;;;;;;7.26;100.00;101350.09;115831;1192;60438;-79
2021/10/28 06:42:13;;;;;;;11.90;6.40;;;;;;;7.32;100.00;101348.27;115558;1192;75515;-79
2021/10/28 06:44:43;;;;;;;9.10;5.80;;;;;;;7.41;100.00;101354.90;115041;1192;72057;-80
2021/10/28 06:47:10;;;;;;;9.40;6.40;;;;;;;7.48;100.00;101351.48;115526;1192;72463;-72
2021/10/28 06:49:40;;;;;;;9.90;6.40;;;;;;;7.56;100.00;101355.65;115740;1192;62035;-73
2021/10/28 06:52:12;;;;;;;8.10;5.00;;;;;;;7.69;100.00;101355.66;115809;1192;60249;-73
2021/10/28 06:54:42;;;;;;;9.10;4.90;;;;;;;7.75;100.00;101353.19;115743;1192;76147;-73
2021/10/28 07:02:44;;;;;;;;;;;;;;;8.07;100.00;101348.35;115763;1192;61925;-73
2021/10/28 07:05:12;;;;;;;11.30;5.50;;;;;;;8.19;100.00;101351.16;115813;1192;61375;-73
2021/10/28 07:07:38;;;;;;;8.40;4.80;;;;;;;8.28;100.00;101347.13;115502;1191;76275;-73
2021/10/28 07:15:53;;;;;;;9.30;6.40;;;;;;;8.53;100.00;101335.99;115763;1192;62781;-73
2021/10/28 07:23:18;;;;;;;7.10;4.50;;;;;;;8.76;99.79;101346.35;115543;1192;70472;-73
2021/10/28 08:14:36;;;;;;;8.30;4.50;;;;;;;10.53;92.64;101304.89;115377;1192;76443;-73
2021/10/28 08:17:35;;;;;;;7.70;4.40;;;;;;;10.60;91.91;101301.81;115719;1192;70984;-73
2021/10/28 08:20:09;;;;;;;7.20;4.60;;;;;;;10.68;91.23;101301.67;115672;1192;71589;-72
2021/10/28 08:22:48;;;;;;;7.30;4.10;;;;;;;10.74;90.89;101297.52;115657;1192;62000;-72
2021/10/28 08:30:48;;;;;;;5.60;3.60;;;;;;;11.01;90.29;101294.49;115629;1192;72668;-72
2021/10/28 08:33:19;;;;;;;8.50;4.10;;;;;;;11.11;90.22;101293.14;115669;1192;72495;-73
2021/10/28 08:35:54;;;;;;;6.70;4.80;;;;;;;11.19;89.25;101293.67;115560;1192;62780;-72
2021/10/28 08:38:21;;;;;;;;;;;;;;;11.27;89.27;101298.11;115742;1192;61653;-72
2021/10/28 08:40:52;;;;;;;6.30;4.40;;;;;;;11.34;88.66;101291.71;115711;1192;75400;-73
2021/10/28 08:43:20;;;;;;;8.10;4.50;;;;;;;11.41;88.94;101289.29;115727;1192;70537;-73
2021/10/28 08:45:50;;;;;;;6.90;3.50;;;;;;;11.51;87.62;101291.32;115338;1192;73541;-73
2021/10/28 08:48:20;;;;;;;7.30;4.00;;;;;;;11.57;86.87;101293.11;115457;1192;64002;-72
2021/10/28 08:51:01;;;;;;;7.60;2.70;;;;;;;11.66;86.22;101294.23;115660;1192;61337;-73
2021/10/28 08:53:45;;;;;;;6.70;3.60;;;;;;;11.71;85.29;101291.94;115634;1192;76360;-73
2021/10/28 08:59:29;;;;;;;8.90;4.90;;;;;;;11.78;83.93;101284.95;115518;1192;72638;-73
2021/10/28 09:25:10;;;;;;;7.20;4.20;;;;;;;12.57;80.02;101270.77;115245;1195;71015;-73
2021/10/28 09:27:47;;;;;;;6.60;4.10;;;;;;;12.66;80.26;101267.77;115241;1195;72756;-73
2021/10/28 09:30:28;;;;;;;5.70;2.70;;;;;;;12.75;79.69;101269.09;115256;1192;61670;-73
2021/10/28 09:33:05;;;;;;;6.30;3.00;;;;;;;12.82;79.50;101263.95;115641;1191;60090;-72
2021/10/28 09:36:09;;;;;;;5.60;3.80;;;;;;;12.90;78.85;101259.38;115873;1191;75777;-73
2021/10/28 09:45:01;;;;;;;4.90;3.40;;;;;;;13.26;79.21;101254.16;115738;1192;60318;-76
2021/10/28 09:47:42;;;;;;;7.10;3.10;;;;;;;13.39;79.25;101249.83;115652;1192;61304;-76
2021/10/28 09:50:24;;;;;;;4.60;2.90;;;;;;;13.49;77.57;101242.04;115722;1192;76532;-76
2021/10/28 09:53:07;;;;;;;4.40;2.60;;;;;;;13.58;76.80;101240.27;115413;1192;71617;-75
2021/10/28 09:58:25;;;;;;;5.80;3.90;;;;;;;13.73;76.97;101244.09;115692;1191;61095;-76
2021/10/28 10:00:53;;;;;;;8.90;4.10;;;;;;;13.79;75.36;101244.95;115752;1192;60777;-76
2021/10/28 10:03:30;;;;;;;4.50;3.20;;;;;;;13.85;75.41;101243.67;115674;1192;74522;-76
2021/10/28 10:06:05;;;;;;;4.20;2.80;;;;;;;13.92;74.58;101246.58;115101;1192;72320;-76
2021/10/28 10:08:34;;;;;;;4.90;3.20;;;;;;;13.95;72.69;101241.64;115508;1192;73094;-76
2021/10/28 10:11:02;;;;;;;5.20;2.90;;;;;;;13.99;73.78;101238.29;115698;1192;60802;-76
2021/10/28 10:13:30;;;;;;;5.50;3.70;;;;;;;14.04;73.72;101235.38;115717;1192;60496;-76
2021/10/28 10:16:01;;;;;;;4.30;2.50;;;;;;;14.10;73.13;101232.46;115681;1191;75206;-76
2021/10/28 10:18:29;;;;;;;4.10;2.80;;;;;;;14.15;72.86;101234.05;115735;1192;70952;-76
2021/10/28 10:21:03;;;;;;;5.20;3.30;;;;;;;14.20;71.72;101229.89;115577;1192;73840;-77
2021/10/28 10:23:45;;;;;;;4.40;2.70;;;;;;;14.30;72.54;101229.79;115516;1192;59967;-76
2021/10/28 10:26:48;;;;;;;6.00;1.90;;;;;;;14.42;72.17;101228.10;115750;1192;60523;-76
2021/10/28 11:22:53;;;;;;;4.00;2.00;;;;;;;16.36;63.01;101170.88;115394;1187;60151;-76
2021/10/28 12:44:07;;;;;;;2.70;1.10;;;;;;;30.23;28.38;101049.15;115400;1192;72468;-78
2021/10/28 12:52:46;;;;;;;2.40;0.90;;;;;;;31.22;26.77;101046.10;115723;1192;76484;-77
2021/10/28 13:36:19;;;;;;;1.10;0.60;;;;;;;32.91;22.84;100977.56;115757;1192;69549;-77
2021/10/28 13:57:39;;;;;;;1.40;0.60;;;;;;;29.82;25.64;100967.73;115462;1192;61833;-78
2021/10/28 14:00:40;;;;;;;1.40;0.70;;;;;;;29.63;25.77;100963.18;115735;1192;75347;-78
2021/10/28 14:25:29;;;;;;;1.30;0.70;;;;;;;30.96;23.95;100941.95;115479;1192;61750;-77
2021/10/28 14:31:10;;;;;;;1.40;0.50;;;;;;;30.44;24.91;100941.34;115510;1192;72516;-77
2021/10/28 15:28:32;;;;;;;4.50;1.80;;;;;;;27.02;30.46;100880.02;115781;1192;73649;-77
2021/10/28 15:31:30;;;;;;;3.30;1.40;;;;;;;26.66;30.73;100877.36;115793;1192;60472;-77
2021/10/28 15:34:29;;;;;;;3.00;1.00;;;;;;;26.07;31.63;100879.08;115446;1192;61027;-77
2021/10/28 15:39:54;;;;;;;5.20;2.10;;;;;;;23.54;35.11;100878.09;115669;1192;61749;-77
2021/10/28 15:48:21;;;;;;;2.60;1.50;;;;;;;20.55;41.03;100870.53;115461;1192;60018;-77
2021/10/28 15:51:05;;;;;;;2.70;1.00;;;;;;;19.60;43.45;100871.25;115651;1192;75543;-78
2021/10/28 16:23:26;;;;;;;;;;;;;;;13.88;62.69;100850.22;114466;1192;73027;-76
2021/10/28 16:25:52;;;;;;;8.00;3.90;;;;;;;13.73;62.95;100852.76;115606;1192;59904;-76
2021/10/28 16:28:19;;;;;;;6.20;2.90;;;;;;;13.59;63.58;100855.84;115616;1192;59870;-76
2021/10/28 16:30:47;;;;;;;7.00;2.50;;;;;;;13.48;63.61;100851.88;115744;1192;60429;-77
2021/10/28 16:33:14;;;;;;;3.80;2.60;;;;;;;13.36;63.19;100855.23;115768;1192;71110;-76
2021/10/28 16:35:43;;;;;;;4.90;2.40;;;;;;;13.25;63.11;100853.79;115723;1192;73839;-76
2021/10/28 16:38:10;;;;;;;2.90;1.80;;;;;;;13.13;63.04;100853.77;115411;1192;60395;-76
2021/10/28 16:40:39;;;;;;;2.90;2.10;;;;;;;13.01;63.14;100856.44;115720;1192;60273;-76
2021/10/28 16:43:07;;;;;;;2.90;1.60;;;;;;;12.90;63.50;100850.77;115656;1192;75318;-76
2021/10/28 16:45:34;;;;;;;4.10;2.30;;;;;;;12.78;63.71;100848.60;115195;1192;71910;-78
2021/10/28 16:48:01;;;;;;;3.60;2.00;;;;;;;12.69;64.08;100845.26;115631;1192;72418;-78
2021/10/28 16:50:27;;;;;;;5.00;2.70;;;;;;;12.56;64.49;100837.02;115795;1192;61749;-78
2021/10/28 16:52:54;;;;;;;3.00;1.70;;;;;;;12.40;65.55;100833.90;115729;1192;61012;-78
2021/10/28 16:55:21;;;;;;;2.80;1.90;;;;;;;12.22;66.60;100831.73;115761;1192;61080;-78
2021/10/28 16:57:47;;;;;;;2.90;1.90;;;;;;;12.07;67.27;100832.98;115735;1192;70395;-78
2021/10/28 17:00:16;;;;;;;2.50;1.60;;;;;;;11.98;67.77;100836.72;115719;1192;72490;-78
2021/10/28 17:02:43;;;;;;;3.70;2.10;;;;;;;11.91;68.18;100841.76;115773;1192;60026;-78
2021/10/28 17:05:11;;;;;;;4.80;2.80;;;;;;;11.86;68.41;100840.37;115278;1192;59913;-78
2021/10/28 17:07:38;;;;;;;4.70;2.60;;;;;;;11.80;69.01;100838.70;115481;1192;74859;-78
2021/10/28 17:10:06;;;;;;;4.20;2.20;;;;;;;11.74;69.30;100836.79;115297;1192;71297;-78
2021/10/28 17:12:34;;;;;;;5.10;2.10;;;;;;;11.69;69.85;100835.60;115716;1192;72511;-78
2021/10/28 17:15:00;;;;;;;2.90;1.80;;;;;;;11.64;70.32;100835.23;115667;1192;61907;-78
2021/10/28 17:17:28;;;;;;;3.30;1.80;;;;;;;11.60;70.53;100831.82;115721;1192;61654;-78
2021/10/28 17:20:00;;;;;;;3.80;2.30;;;;;;;11.58;71.13;100836.71;115721;1192;76549;-79
2021/10/28 17:22:27;;;;;;;5.90;2.60;;;;;;;11.57;71.13;100835.60;115824;1192;71156;-78
2021/10/28 17:24:53;;;;;;;6.40;3.20;;;;;;;11.55;71.22;100831.09;115372;1192;60064;-78
2021/10/28 17:27:22;;;;;;;6.50;3.00;;;;;;;11.51;71.59;100828.35;115121;1192;61757;-78
2021/10/28 17:29:49;;;;;;;5.30;2.10;;;;;;;11.46;72.19;100824.46;115692;1192;59958;-78
2021/10/28 17:32:16;;;;;;;4.80;2.20;;;;;;;11.39;72.98;100820.63;115566;1192;75561;-79
2021/10/28 17:34:46;;;;;;;3.20;2.30;;;;;;;11.34;73.98;100822.42;115528;1192;72063;-78
2021/10/28 17:37:12;;;;;;;4.80;2.50;;;;;;;11.32;73.90;100825.35;115589;1192;72709;-79
2021/10/28 17:39:42;;;;;;;4.20;2.50;;;;;;;11.27;73.52;100831.96;115680;1186;60872;-79
2021/10/28 17:42:09;;;;;;;4.40;2.80;;;;;;;11.22;73.45;100833.42;115807;1192;61252;-80
2021/10/28 17:44:39;;;;;;;5.50;3.50;;;;;;;11.17;73.91;100834.84;115725;1192;75448;-79
2021/10/28 17:47:06;;;;;;;5.20;2.80;;;;;;;11.13;74.46;100834.67;115852;1192;70796;-79
2021/10/28 17:49:33;;;;;;;7.20;2.80;;;;;;;11.08;74.76;100832.38;115754;1192;73644;-78
2021/10/28 17:52:04;;;;;;;2.90;1.80;;;;;;;11.04;75.21;100829.65;115653;1191;62444;-78
2021/10/28 17:54:31;;;;;;;4.00;2.30;;;;;;;11.03;75.33;100828.16;115127;1191;61436;-77
2021/10/28 17:57:00;;;;;;;5.80;2.40;;;;;;;11.03;75.83;100822.33;115176;1192;75322;-79
2021/10/28 17:59:27;;;;;;;5.30;2.50;;;;;;;11.03;75.56;100822.85;115670;1192;72423;-79
2021/10/28 18:01:56;;;;;;;5.90;2.40;;;;;;;11.01;75.74;100820.05;115340;1193;72655;-78
2021/10/28 18:04:23;;;;;;;5.70;2.50;;;;;;;11.01;75.40;100822.89;115464;1192;61443;-79
2021/10/28 18:06:54;;;;;;;4.30;2.10;;;;;;;10.99;75.20;100821.47;115485;1192;61353;-80
2021/10/28 18:09:23;;;;;;;4.00;2.20;;;;;;;10.96;75.35;100821.00;115423;1192;77339;-79
2021/10/28 18:11:52;;;;;;;5.70;2.10;;;;;;;10.90;75.21;100820.93;115459;1192;72164;-79
2021/10/28 18:14:21;;;;;;;3.60;1.90;;;;;;;10.83;75.12;100820.70;115638;1192;74313;-79
2021/10/28 18:16:48;;;;;;;3.50;2.00;;;;;;;10.74;75.47;100821.30;115568;1192;60371;-79
2021/10/28 18:19:14;;;;;;;3.30;1.80;;;;;;;10.67;75.64;100814.92;115734;1192;60712;-80
2021/10/28 18:21:43;;;;;;;3.80;2.60;;;;;;;10.60;75.60;100816.72;115735;1191;75453;-79
2021/10/28 18:24:11;;;;;;;4.60;2.60;;;;;;;10.52;75.92;100817.61;115518;1192;71354;-80
2021/10/28 18:26:38;;;;;;;6.80;2.80;;;;;;;10.46;76.17;100817.36;115673;1192;72523;-78
2021/10/28 18:29:05;;;;;;;5.20;2.90;;;;;;;10.40;76.54;100812.25;115629;1192;61978;-78
2021/10/28 18:31:32;;;;;;;3.60;2.50;;;;;;;10.35;76.72;100808.91;115640;1192;60895;-77
2021/10/28 18:34:00;;;;;;;4.00;2.30;;;;;;;10.29;77.21;100803.84;115665;1192;75810;-78
2021/10/28 18:36:30;;;;;;;3.90;2.40;;;;;;;10.24;77.98;100798.98;115713;1191;72264;-77
2021/10/28 18:38:57;;;;;;;5.40;2.70;;;;;;;10.21;78.65;100796.20;115741;1192;72664;-78
2021/10/28 18:41:25;;;;;;;4.10;2.40;;;;;;;10.23;78.61;100794.30;115358;1192;60429;-79
2021/10/28 18:43:52;;;;;;;3.40;2.10;;;;;;;10.26;78.49;100794.53;115410;1191;60160;-79
2021/10/28 18:46:23;;;;;;;4.30;2.70;;;;;;;10.29;78.53;100787.63;115424;1192;75620;-78
2021/10/28 18:48:52;;;;;;;3.80;1.90;;;;;;;10.32;78.43;100783.94;115577;1192;71716;-78
2021/10/28 18:51:21;;;;;;;4.50;2.40;;;;;;;10.37;78.65;100779.84;115088;1184;72301;-78
2021/10/28 18:53:49;;;;;;;5.80;3.00;;;;;;;10.41;78.03;100773.89;115312;1193;60241;-79
2021/10/28 18:56:17;;;;;;;7.60;2.90;;;;;;;10.46;77.44;100770.70;115621;1192;60282;-79
2021/10/28 18:58:48;;;;;;;5.50;3.40;;;;;;;10.51;77.05;100771.20;115610;1191;76441;-77
2021/10/28 19:01:17;;;;;;;3.90;2.20;;;;;;;10.55;76.56;100769.72;115678;1193;72283;-80
2021/10/28 19:03:45;;;;;;;4.30;2.70;;;;;;;10.56;76.34;100764.24;115729;1192;72575;-79
2021/10/28 19:06:14;;;;;;;3.80;2.00;;;;;;;10.55;76.23;100758.15;115816;1192;60676;-80
2021/10/28 19:08:43;;;;;;;4.70;2.40;;;;;;;10.51;76.16;100749.98;115695;1192;59983;-79
2021/10/28 19:11:12;;;;;;;5.60;2.70;;;;;;;10.45;76.22;100745.20;114877;1192;74629;-78
2021/10/28 19:13:41;;;;;;;5.00;2.60;;;;;;;10.41;76.15;100738.74;115300;1192;72649;-79
2021/10/28 19:16:09;;;;;;;3.40;2.20;;;;;;;10.39;76.06;100743.67;114967;1192;73679;-77
2021/10/28 19:18:37;;;;;;;4.50;2.90;;;;;;;10.37;76.17;100752.23;115680;1191;61297;-78
2021/10/28 19:21:04;;;;;;;4.80;2.90;;;;;;;10.34;75.97;100747.84;115717;1191;63000;-78
2021/10/28 19:23:33;;;;;;;5.80;3.00;;;;;;;10.31;76.41;100748.88;115697;1192;76643;-78
2021/10/28 19:25:59;;;;;;;3.60;2.30;;;;;;;10.26;76.45;100747.06;115596;1192;72065;-78
2021/10/28 19:28:26;;;;;;;6.30;2.50;;;;;;;10.19;76.65;100742.36;115639;1192;72649;-78
2021/10/28 19:31:03;;;;;;;4.40;2.60;;;;;;;10.12;76.64;100743.14;115403;1192;63239;-78
2021/10/28 19:33:42;;;;;;;5.20;3.10;;;;;;;10.03;77.11;100745.77;115264;1191;61560;-78
2021/10/28 19:36:12;;;;;;;4.20;2.90;;;;;;;9.94;77.08;100743.05;114658;1192;75365;-77
2021/10/28 19:38:51;;;;;;;5.10;2.90;;;;;;;9.85;77.13;100739.27;115610;1191;71044;-79